createdAt,value
2023-03-29T00:00:13.142Z,2.56
2023-03-29T00:01:35.975Z,6.56
2023-03-29T00:02:13.633Z,7.04
2023-03-29T00:03:13.664Z,4.80
2023-03-29T00:04:13.753Z,2.88
2023-03-29T00:05:12.849Z,6.12
2023-03-29T00:06:13.876Z,4.68
2023-03-29T00:07:14.103Z,2.88
2023-03-29T00:08:13.149Z,6.32
2023-03-29T00:09:12.986Z,9.04
2023-03-29T00:10:12.963Z,5.84
2023-03-29T00:11:12.975Z,2.80
2023-03-29T00:12:12.948Z,9.56
2023-03-29T00:13:12.905Z,2.72
2023-03-29T00:14:13.081Z,2.24
2023-03-29T00:15:13.049Z,2.84
2023-03-29T00:16:12.991Z,1.36
2023-03-29T00:17:13.065Z,5.60
2023-03-29T00:18:13.225Z,1.04
2023-03-29T00:19:13.140Z,1.88
2023-03-29T00:20:13.267Z,1.52
2023-03-29T00:21:13.212Z,3.16
2023-03-29T00:22:13.441Z,7.08
2023-03-29T00:23:13.775Z,5.04
2023-03-29T00:24:14.014Z,3.92
2023-03-29T00:25:13.057Z,2.88
2023-03-29T00:26:12.887Z,3.28
2023-03-29T00:27:12.880Z,3.68
2023-03-29T00:28:12.828Z,1.88
2023-03-29T00:29:13.831Z,4.32
2023-03-29T00:30:14.059Z,6.32
2023-03-29T00:31:13.271Z,4.24
2023-03-29T00:32:13.487Z,2.56
2023-03-29T00:33:13.612Z,2.64
2023-03-29T00:34:13.505Z,2.04
2023-03-29T00:35:13.746Z,3.08
2023-03-29T00:36:13.808Z,2.08
2023-03-29T00:37:14.023Z,6.56
2023-03-29T00:38:12.834Z,1.00
2023-03-29T00:39:13.914Z,2.68
2023-03-29T00:40:12.795Z,2.76
2023-03-29T00:41:13.987Z,4.44
2023-03-29T00:42:12.966Z,3.04
2023-03-29T00:43:12.841Z,2.68
2023-03-29T00:44:13.812Z,2.84
2023-03-29T00:45:13.986Z,5.16
2023-03-29T00:46:12.871Z,3.36
2023-03-29T00:47:12.851Z,4.00
2023-03-29T00:48:13.940Z,3.44
2023-03-29T00:49:12.958Z,5.72
2023-03-29T00:50:12.835Z,7.04
2023-03-29T00:51:18.816Z,9.08
2023-03-29T00:52:14.148Z,4.68
2023-03-29T00:53:13.129Z,3.20
2023-03-29T00:54:12.947Z,10.68
2023-03-29T00:55:12.997Z,8.20
2023-03-29T00:56:12.824Z,11.68
2023-03-29T00:57:13.769Z,10.20
2023-03-29T00:58:13.941Z,5.60
2023-03-29T00:59:12.950Z,5.76
2023-03-29T01:00:13.093Z,10.28
2023-03-29T01:01:13.145Z,6.56
2023-03-29T01:02:13.072Z,9.28
2023-03-29T01:03:13.292Z,13.64
2023-03-29T01:04:13.238Z,7.52
2023-03-29T01:05:13.349Z,9.28
2023-03-29T01:06:13.293Z,11.20
2023-03-29T01:07:13.411Z,8.36
2023-03-29T01:08:13.546Z,21.44
2023-03-29T01:09:13.362Z,22.16
2023-03-29T01:10:13.265Z,18.44
2023-03-29T01:11:13.583Z,20.56
2023-03-29T01:12:13.924Z,17.84
2023-03-29T01:13:13.273Z,21.32
2023-03-29T01:14:13.168Z,18.72
2023-03-29T01:15:13.198Z,19.88
2023-03-29T01:16:13.571Z,12.40
2023-03-29T01:17:18.896Z,10.72
2023-03-29T01:18:12.935Z,11.56
2023-03-29T01:19:13.155Z,11.60
2023-03-29T01:20:13.123Z,22.76
2023-03-29T01:21:13.519Z,18.72
2023-03-29T01:22:13.458Z,9.05
2023-03-29T01:23:13.442Z,5.60
2023-03-29T01:24:13.765Z,11.20
2023-03-29T01:25:13.617Z,4.20
2023-03-29T01:26:13.559Z,8.80
2023-03-29T01:27:13.502Z,10.28
2023-03-29T01:28:13.768Z,15.72
2023-03-29T01:29:13.713Z,3.52
2023-03-29T01:30:13.624Z,11.36
2023-03-29T01:31:13.627Z,18.00
2023-03-29T01:32:13.653Z,10.00
2023-03-29T01:33:13.526Z,27.44
2023-03-29T01:34:13.514Z,21.64
2023-03-29T01:35:13.610Z,17.52
2023-03-29T01:36:13.571Z,33.20
2023-03-29T01:37:13.449Z,27.16
2023-03-29T01:38:13.745Z,13.92
2023-03-29T01:39:13.754Z,23.28
2023-03-29T01:40:13.842Z,19.00
2023-03-29T01:41:13.787Z,16.64
2023-03-29T01:42:14.010Z,15.08
2023-03-29T01:43:13.326Z,7.92
2023-03-29T01:44:13.402Z,13.72
2023-03-29T01:45:13.356Z,18.12
2023-03-29T01:46:13.629Z,19.12
2023-03-29T01:47:13.959Z,17.28
2023-03-29T01:48:13.045Z,10.96
2023-03-29T01:49:13.281Z,10.72
2023-03-29T01:50:13.260Z,12.32
2023-03-29T01:51:13.577Z,15.04
2023-03-29T01:52:13.654Z,19.60
2023-03-29T01:53:13.813Z,13.60
2023-03-29T01:54:13.744Z,15.76
2023-03-29T01:55:13.670Z,8.28
2023-03-29T01:56:13.584Z,20.16
2023-03-29T01:57:13.521Z,16.96
2023-03-29T01:58:13.481Z,19.44
2023-03-29T01:59:13.444Z,25.44
2023-03-29T02:00:13.324Z,17.96
2023-03-29T02:01:13.711Z,16.12
2023-03-29T02:02:13.769Z,16.96
2023-03-29T02:03:15.079Z,24.92
2023-03-29T02:04:13.613Z,20.84
2023-03-29T02:05:13.906Z,19.48
2023-03-29T02:06:12.997Z,15.76
2023-03-29T02:07:13.354Z,14.40
2023-03-29T02:08:13.837Z,10.40
2023-03-29T02:09:14.011Z,8.64
2023-03-29T02:10:13.059Z,8.96
2023-03-29T02:11:13.431Z,8.48
2023-03-29T02:12:13.729Z,12.20
2023-03-29T02:13:13.917Z,10.60
2023-03-29T02:14:13.158Z,15.56
2023-03-29T02:15:13.004Z,11.16
2023-03-29T02:16:13.137Z,6.88
2023-03-29T02:17:13.144Z,8.44
2023-03-29T02:18:13.848Z,9.48
2023-03-29T02:19:13.831Z,9.44
2023-03-29T02:20:13.759Z,21.40
2023-03-29T02:21:13.796Z,2.00
2023-03-29T02:22:13.808Z,5.96
2023-03-29T02:23:14.008Z,12.24
2023-03-29T02:24:13.303Z,15.20
2023-03-29T02:25:13.672Z,8.48
2023-03-29T02:26:13.751Z,9.44
2023-03-29T02:27:13.677Z,8.80
2023-03-29T02:28:13.658Z,11.08
2023-03-29T02:29:13.744Z,13.44
2023-03-29T02:30:13.617Z,11.88
2023-03-29T02:31:13.603Z,26.60
2023-03-29T02:32:13.590Z,20.28
2023-03-29T02:33:13.806Z,14.56
2023-03-29T02:34:13.681Z,15.04
2023-03-29T02:35:13.900Z,8.48
2023-03-29T02:36:13.148Z,6.40
2023-03-29T02:37:13.145Z,16.48
2023-03-29T02:38:13.220Z,33.48
2023-03-29T02:39:13.424Z,26.08
2023-03-29T02:40:13.643Z,15.16
2023-03-29T02:41:13.975Z,26.64
2023-03-29T02:42:13.041Z,21.68
2023-03-29T02:43:13.110Z,15.24
2023-03-29T02:44:12.878Z,5.76
2023-03-29T02:45:13.794Z,14.16
2023-03-29T02:46:13.726Z,5.68
2023-03-29T02:47:13.719Z,5.48
2023-03-29T02:48:13.691Z,13.00
2023-03-29T02:49:14.026Z,12.00
2023-03-29T02:50:13.057Z,32.80
2023-03-29T02:51:13.002Z,14.64
2023-03-29T02:52:12.980Z,16.76
2023-03-29T02:53:13.722Z,24.24
2023-03-29T02:54:13.848Z,23.48
2023-03-29T02:55:13.772Z,22.20
2023-03-29T02:56:13.982Z,39.12
2023-03-29T02:57:12.996Z,19.76
2023-03-29T02:58:13.221Z,18.48
2023-03-29T02:59:14.303Z,35.16
2023-03-29T03:00:13.440Z,18.04
2023-03-29T03:01:13.697Z,35.32
2023-03-29T03:02:13.998Z,29.64
2023-03-29T03:03:13.125Z,28.68
2023-03-29T03:04:13.460Z,22.24
2023-03-29T03:05:13.645Z,32.56
2023-03-29T03:06:13.481Z,31.08
2023-03-29T03:07:13.573Z,21.68
2023-03-29T03:08:13.630Z,21.44
2023-03-29T03:09:13.626Z,17.60
2023-03-29T03:10:13.539Z,18.00
2023-03-29T03:11:13.793Z,17.12
2023-03-29T03:12:13.739Z,3.84
2023-03-29T03:13:13.863Z,4.60
2023-03-29T03:14:13.863Z,24.60
2023-03-29T03:15:13.800Z,14.60
2023-03-29T03:16:13.748Z,17.32
2023-03-29T03:17:13.792Z,23.68
2023-03-29T03:18:13.591Z,14.24
2023-03-29T03:19:13.745Z,31.60
2023-03-29T03:20:14.138Z,9.12
2023-03-29T03:21:13.053Z,9.20
2023-03-29T03:22:13.442Z,9.24
2023-03-29T03:23:18.327Z,28.96
2023-03-29T03:24:13.503Z,18.08
2023-03-29T03:25:13.456Z,11.28
2023-03-29T03:26:13.349Z,13.96
2023-03-29T03:27:13.384Z,21.60
2023-03-29T03:28:13.188Z,18.32
2023-03-29T03:29:13.282Z,33.40
2023-03-29T03:30:13.424Z,22.12
2023-03-29T03:31:13.558Z,12.76
2023-03-29T03:32:13.767Z,13.44
2023-03-29T03:33:14.153Z,20.80
2023-03-29T03:34:13.311Z,23.44
2023-03-29T03:35:13.602Z,18.52
2023-03-29T03:36:13.430Z,11.28
2023-03-29T03:37:13.494Z,20.60
2023-03-29T03:38:13.670Z,8.24
2023-03-29T03:39:13.705Z,19.84
2023-03-29T03:40:14.033Z,31.24
2023-03-29T03:41:13.048Z,18.76
2023-03-29T03:42:12.869Z,26.28
2023-03-29T03:43:13.862Z,23.96
2023-03-29T03:44:14.024Z,14.88
2023-03-29T03:45:13.269Z,14.28
2023-03-29T03:46:13.268Z,14.56
2023-03-29T03:47:13.688Z,18.52
2023-03-29T03:48:13.933Z,14.52
2023-03-29T03:49:12.973Z,18.88
2023-03-29T03:50:12.933Z,21.36
2023-03-29T03:51:13.017Z,11.92
2023-03-29T03:52:13.044Z,12.44
2023-03-29T03:53:13.305Z,12.84
2023-03-29T03:54:13.507Z,18.36
2023-03-29T03:55:13.592Z,16.08
2023-03-29T03:56:13.709Z,15.88
2023-03-29T03:57:13.829Z,23.52
2023-03-29T03:58:13.830Z,8.44
2023-03-29T03:59:14.233Z,15.36
2023-03-29T04:00:13.284Z,21.16
2023-03-29T04:01:13.583Z,10.40
2023-03-29T04:02:13.666Z,9.28
2023-03-29T04:03:13.904Z,11.88
2023-03-29T04:04:13.036Z,18.96
2023-03-29T04:05:12.955Z,20.76
2023-03-29T04:06:12.918Z,20.92
2023-03-29T04:07:12.911Z,16.84
2023-03-29T04:08:12.793Z,12.76
2023-03-29T04:09:14.067Z,30.32
2023-03-29T04:10:12.910Z,32.48
2023-03-29T04:11:12.767Z,27.56
2023-03-29T04:12:16.278Z,25.20
2023-03-29T04:13:13.378Z,26.36
2023-03-29T04:14:13.452Z,25.64
2023-03-29T04:15:13.630Z,18.36
2023-03-29T04:16:14.302Z,31.20
2023-03-29T04:17:14.066Z,20.36
2023-03-29T04:18:13.425Z,26.48
2023-03-29T04:19:13.699Z,12.64
2023-03-29T04:20:13.609Z,18.48
2023-03-29T04:21:13.557Z,12.96
2023-03-29T04:22:13.792Z,19.92
2023-03-29T04:23:13.957Z,30.48
2023-03-29T04:24:12.905Z,27.08
2023-03-29T04:25:13.285Z,13.40
2023-03-29T04:26:13.550Z,7.92
2023-03-29T04:27:13.464Z,14.72
2023-03-29T04:28:13.736Z,15.76
2023-03-29T04:29:14.124Z,18.28
2023-03-29T04:30:13.239Z,23.48
2023-03-29T04:31:13.365Z,24.40
2023-03-29T04:32:13.766Z,23.36
2023-03-29T04:33:14.266Z,32.00
2023-03-29T04:34:13.780Z,16.40
2023-03-29T04:35:13.903Z,18.92
2023-03-29T04:36:12.864Z,4.20
2023-03-29T04:37:13.878Z,4.76
2023-03-29T04:38:13.870Z,4.84
2023-03-29T04:39:13.949Z,6.20
2023-03-29T04:40:13.505Z,9.16
2023-03-29T04:41:13.479Z,12.12
2023-03-29T04:42:13.692Z,5.28
2023-03-29T04:43:13.785Z,2.60
2023-03-29T04:44:13.719Z,8.44
2023-03-29T04:45:13.693Z,5.52
2023-03-29T04:46:14.055Z,13.72
2023-03-29T04:47:13.398Z,14.88
2023-03-29T04:48:13.537Z,22.92
2023-03-29T04:49:13.436Z,22.76
2023-03-29T04:50:13.333Z,18.36
2023-03-29T04:51:13.378Z,10.44
2023-03-29T04:52:13.447Z,19.36
2023-03-29T04:53:13.351Z,14.20
2023-03-29T04:54:13.588Z,10.88
2023-03-29T04:55:13.650Z,19.08
2023-03-29T04:56:13.532Z,26.48
2023-03-29T04:57:13.725Z,18.28
2023-03-29T04:58:14.209Z,9.36
2023-03-29T04:59:13.453Z,23.60
2023-03-29T05:00:13.422Z,18.04
2023-03-29T05:01:13.302Z,21.96
2023-03-29T05:02:13.290Z,15.56
2023-03-29T05:03:13.238Z,32.60
2023-03-29T05:04:13.197Z,24.76
2023-03-29T05:06:12.945Z,10.56
2023-03-29T05:07:12.877Z,13.56
2023-03-29T05:08:13.159Z,17.16
2023-03-29T05:09:13.349Z,11.96
2023-03-29T05:10:13.194Z,7.92
2023-03-29T05:11:18.181Z,30.40
2023-03-29T05:12:13.321Z,28.72
2023-03-29T05:13:13.444Z,20.68
2023-03-29T05:14:13.398Z,9.04
2023-03-29T05:15:13.493Z,21.76
2023-03-29T05:16:13.565Z,15.60
2023-03-29T05:17:13.571Z,30.12
2023-03-29T05:18:13.585Z,25.92
2023-03-29T05:19:14.088Z,28.92
2023-03-29T05:20:12.993Z,23.56
2023-03-29T05:21:12.891Z,15.72
2023-03-29T05:22:12.902Z,14.61
2023-03-29T05:23:14.169Z,12.96
2023-03-29T05:24:13.168Z,19.64
2023-03-29T05:25:13.308Z,16.88
2023-03-29T05:26:13.373Z,15.72
2023-03-29T05:27:13.650Z,21.32
2023-03-29T05:28:13.699Z,13.92
2023-03-29T05:29:13.770Z,15.20
2023-03-29T05:30:56.052Z,32.40
2023-03-29T05:31:14.206Z,19.44
2023-03-29T05:32:13.274Z,21.96
2023-03-29T05:33:13.470Z,26.96
2023-03-29T05:34:13.346Z,19.96
2023-03-29T05:35:13.456Z,39.44
2023-03-29T05:36:13.851Z,17.48
2023-03-29T05:37:13.894Z,43.28
2023-03-29T05:38:12.845Z,30.32
2023-03-29T05:39:13.915Z,17.36
2023-03-29T05:40:12.829Z,21.32
2023-03-29T05:41:13.939Z,33.84
2023-03-29T05:42:13.077Z,26.36
2023-03-29T05:43:14.195Z,35.80
2023-03-29T05:44:13.309Z,28.48
2023-03-29T05:45:13.253Z,46.60
2023-03-29T05:46:13.153Z,29.20
2023-03-29T05:47:13.158Z,10.28
2023-03-29T05:48:13.272Z,30.72
2023-03-29T05:49:13.632Z,7.96
2023-03-29T05:50:13.646Z,17.00
2023-03-29T05:51:13.669Z,21.08
2023-03-29T05:52:13.678Z,14.28
2023-03-29T05:53:13.762Z,14.28
2023-03-29T05:54:13.881Z,13.20
2023-03-29T05:55:12.802Z,25.04
2023-03-29T05:56:13.718Z,18.80
2023-03-29T05:57:13.878Z,20.24
2023-03-29T05:58:12.807Z,24.60
2023-03-29T05:59:13.876Z,25.88
2023-03-29T06:00:12.914Z,30.60
2023-03-29T06:01:12.964Z,15.08
2023-03-29T06:02:13.279Z,14.56
2023-03-29T06:03:20.270Z,13.96
2023-03-29T06:04:13.841Z,11.08
2023-03-29T06:05:12.841Z,14.72
2023-03-29T06:06:14.410Z,9.36
2023-03-29T06:07:13.574Z,9.40
2023-03-29T06:08:14.071Z,24.56
2023-03-29T06:09:13.044Z,14.04
2023-03-29T06:10:13.149Z,15.24
2023-03-29T06:11:13.426Z,15.20
2023-03-29T06:12:13.495Z,16.04
2023-03-29T06:13:13.669Z,14.96
2023-03-29T06:14:13.700Z,15.24
2023-03-29T06:15:13.580Z,33.60
2023-03-29T06:16:13.841Z,11.84
2023-03-29T06:17:14.051Z,26.60
2023-03-29T06:18:13.029Z,17.16
2023-03-29T06:19:12.903Z,12.16
2023-03-29T06:20:12.959Z,8.12
2023-03-29T06:21:14.256Z,10.48
2023-03-29T06:22:14.915Z,18.48
2023-03-29T06:23:13.297Z,18.00
2023-03-29T06:24:13.448Z,22.64
2023-03-29T06:25:13.502Z,14.20
2023-03-29T06:26:13.385Z,15.24
2023-03-29T06:27:13.365Z,10.48
2023-03-29T06:28:13.288Z,9.76
2023-03-29T06:29:13.277Z,10.56
2023-03-29T06:30:13.227Z,5.32
2023-03-29T06:31:13.354Z,3.24
2023-03-29T06:32:13.321Z,14.20
2023-03-29T06:33:13.312Z,7.52
2023-03-29T06:34:14.035Z,15.52
2023-03-29T06:35:13.291Z,6.52
2023-03-29T06:36:13.262Z,12.44
2023-03-29T06:37:13.473Z,6.72
2023-03-29T06:38:13.531Z,9.64
2023-03-29T06:39:13.384Z,5.48
2023-03-29T06:40:13.534Z,8.04
2023-03-29T06:41:13.957Z,5.96
2023-03-29T06:42:20.744Z,2.60
2023-03-29T06:43:13.811Z,2.72
2023-03-29T06:44:13.651Z,6.52
2023-03-29T06:45:14.560Z,13.84
2023-03-29T06:46:13.533Z,12.92
2023-03-29T06:47:13.770Z,10.28
2023-03-29T06:48:13.660Z,12.44
2023-03-29T06:49:13.729Z,11.44
2023-03-29T06:50:13.827Z,11.64
2023-03-29T06:51:13.781Z,10.52
2023-03-29T06:52:13.809Z,6.80
2023-03-29T06:53:14.080Z,3.28
2023-03-29T06:54:13.135Z,3.84
2023-03-29T06:55:13.033Z,6.04
2023-03-29T06:56:13.483Z,6.44
2023-03-29T06:57:13.493Z,12.24
2023-03-29T06:58:13.930Z,13.96
2023-03-29T06:59:12.909Z,19.52
2023-03-29T07:00:13.227Z,7.72
2023-03-29T07:01:13.137Z,7.12
2023-03-29T07:02:13.392Z,8.40
2023-03-29T07:03:13.434Z,4.92
2023-03-29T07:04:13.640Z,3.48
2023-03-29T07:05:13.729Z,12.68
2023-03-29T07:06:13.771Z,18.00
2023-03-29T07:07:14.085Z,13.68
2023-03-29T07:08:13.364Z,12.20
2023-03-29T07:09:13.418Z,10.36
2023-03-29T07:10:13.588Z,14.88
2023-03-29T07:11:13.397Z,10.64
2023-03-29T07:12:13.406Z,8.52
2023-03-29T07:13:13.644Z,19.32
2023-03-29T07:14:13.747Z,16.44
2023-03-29T07:15:14.029Z,4.56
2023-03-29T07:16:13.708Z,4.04
2023-03-29T07:17:13.195Z,7.20
2023-03-29T07:18:13.207Z,6.36
2023-03-29T07:19:13.518Z,7.76
2023-03-29T07:20:13.757Z,16.96
2023-03-29T07:21:14.037Z,11.36
2023-03-29T07:22:13.114Z,8.64
2023-03-29T07:23:13.204Z,14.16
2023-03-29T07:24:13.177Z,9.96
2023-03-29T07:25:13.313Z,2.68
2023-03-29T07:26:13.479Z,2.88
2023-03-29T07:27:13.859Z,5.36
2023-03-29T07:28:14.203Z,3.64
2023-03-29T07:29:13.162Z,10.48
2023-03-29T07:30:13.306Z,6.20
2023-03-29T07:31:13.369Z,14.84
2023-03-29T07:32:13.483Z,18.88
2023-03-29T07:33:13.958Z,19.76
2023-03-29T07:34:13.382Z,10.44
2023-03-29T07:35:13.750Z,17.40
2023-03-29T07:36:14.165Z,22.12
2023-03-29T07:37:13.121Z,26.08
2023-03-29T07:38:13.133Z,14.76
2023-03-29T07:39:13.572Z,8.80
2023-03-29T07:40:13.626Z,18.80
2023-03-29T07:41:13.670Z,28.12
2023-03-29T07:42:13.609Z,17.68
2023-03-29T07:43:13.719Z,20.88
2023-03-29T07:44:13.730Z,16.48
2023-03-29T07:45:13.708Z,4.00
2023-03-29T07:46:13.946Z,8.68
2023-03-29T07:47:12.856Z,10.44
2023-03-29T07:48:13.774Z,8.04
2023-03-29T07:49:13.745Z,13.64
2023-03-29T07:50:14.043Z,7.96
2023-03-29T07:51:13.037Z,14.04
2023-03-29T07:52:13.008Z,16.16
2023-03-29T07:53:13.303Z,15.28
2023-03-29T07:54:13.199Z,7.88
2023-03-29T07:55:13.246Z,9.12
2023-03-29T07:56:13.329Z,15.60
2023-03-29T07:57:13.573Z,10.44
2023-03-29T07:58:13.561Z,14.12
2023-03-29T07:59:13.409Z,10.76
2023-03-29T08:00:13.330Z,18.08
2023-03-29T08:01:16.467Z,13.00
2023-03-29T08:02:13.338Z,8.96
2023-03-29T08:03:13.690Z,6.84
2023-03-29T08:04:13.756Z,14.52
2023-03-29T08:05:14.000Z,3.64
2023-03-29T08:06:13.468Z,8.68
2023-03-29T08:07:13.552Z,7.56
2023-03-29T08:08:13.404Z,9.40
2023-03-29T08:09:13.594Z,4.68
2023-03-29T08:10:13.892Z,9.00
2023-03-29T08:11:12.834Z,7.92
2023-03-29T08:12:14.130Z,16.12
2023-03-29T08:13:13.496Z,10.60
2023-03-29T08:14:13.975Z,17.40
2023-03-29T08:15:13.476Z,24.84
2023-03-29T08:16:13.454Z,12.68
2023-03-29T08:17:13.429Z,12.04
2023-03-29T08:18:13.478Z,7.24
2023-03-29T08:19:13.424Z,15.32
2023-03-29T08:20:13.367Z,10.52
2023-03-29T08:21:13.304Z,11.20
2023-03-29T08:22:13.234Z,17.60
2023-03-29T08:23:13.248Z,10.00
2023-03-29T08:24:13.565Z,6.60
2023-03-29T08:25:13.640Z,8.80
2023-03-29T08:26:13.657Z,12.44
2023-03-29T08:27:13.502Z,8.12
2023-03-29T08:28:13.369Z,4.80
2023-03-29T08:29:14.011Z,4.24
2023-03-29T08:30:13.635Z,7.96
2023-03-29T08:31:13.752Z,6.56
2023-03-29T08:32:13.700Z,3.00
2023-03-29T08:33:13.768Z,9.20
2023-03-29T08:34:13.689Z,5.76
2023-03-29T08:35:13.643Z,1.48
2023-03-29T08:36:13.699Z,4.80
2023-03-29T08:37:13.526Z,4.48
2023-03-29T08:38:13.521Z,1.24
2023-03-29T08:39:13.521Z,5.76
2023-03-29T08:40:13.512Z,2.04
2023-03-29T08:41:13.699Z,2.52
2023-03-29T08:42:13.865Z,5.04
2023-03-29T08:43:17.344Z,5.96
2023-03-29T08:44:13.783Z,7.76
2023-03-29T08:45:14.099Z,3.64
2023-03-29T08:46:13.242Z,1.64
2023-03-29T08:47:13.253Z,3.68
2023-03-29T08:48:13.292Z,10.20
2023-03-29T08:49:13.835Z,5.48
2023-03-29T08:50:14.064Z,7.76
2023-03-29T08:51:12.878Z,7.68
2023-03-29T08:52:13.778Z,5.20
2023-03-29T08:53:14.166Z,3.56
2023-03-29T08:54:13.243Z,4.40
2023-03-29T08:55:13.067Z,5.64
2023-03-29T08:56:13.281Z,1.80
2023-03-29T08:57:13.239Z,4.68
2023-03-29T08:58:13.223Z,7.20
2023-03-29T08:59:13.088Z,5.52
2023-03-29T09:00:13.028Z,8.96
2023-03-29T09:01:14.337Z,6.92
2023-03-29T09:02:13.342Z,9.72
2023-03-29T09:03:13.700Z,12.48
2023-03-29T09:04:13.773Z,8.84
2023-03-29T09:05:13.869Z,13.28
2023-03-29T09:06:14.065Z,12.52
2023-03-29T09:07:13.193Z,9.60
2023-03-29T09:08:13.597Z,15.84
2023-03-29T09:09:13.920Z,9.44
2023-03-29T09:10:13.216Z,12.08
2023-03-29T09:11:13.166Z,11.04
2023-03-29T09:12:13.748Z,17.92
2023-03-29T09:13:13.869Z,10.04
2023-03-29T09:14:12.873Z,6.24
2023-03-29T09:15:13.483Z,12.80
2023-03-29T09:16:13.506Z,14.76
2023-03-29T09:17:13.588Z,7.16
2023-03-29T09:18:18.807Z,12.78
2023-03-29T09:21:13.745Z,31.80
2023-03-29T09:22:13.768Z,22.84
2023-03-29T09:23:14.181Z,6.72
2023-03-29T09:24:42.482Z,16.56
2023-03-29T09:25:12.918Z,12.24
2023-03-29T09:26:12.833Z,25.96
2023-03-29T09:27:14.038Z,18.72
2023-03-29T09:28:13.106Z,28.60
2023-03-29T09:29:12.952Z,33.40
2023-03-29T09:30:18.046Z,28.32
2023-03-29T09:31:13.328Z,14.32
2023-03-29T09:32:13.566Z,10.92
2023-03-29T09:33:13.836Z,15.52
2023-03-29T09:34:14.459Z,13.00
2023-03-29T09:35:14.217Z,14.44
2023-03-29T09:36:13.934Z,7.92
2023-03-29T09:37:13.175Z,23.84
2023-03-29T09:38:13.215Z,17.12
2023-03-29T09:39:13.106Z,14.48
2023-03-29T09:40:13.112Z,13.40
2023-03-29T09:41:13.498Z,18.56
2023-03-29T09:42:13.686Z,17.20
2023-03-29T09:43:13.827Z,10.88
2023-03-29T09:44:24.182Z,27.40
2023-03-29T09:45:18.198Z,20.72
2023-03-29T09:46:13.347Z,21.40
2023-03-29T09:47:13.361Z,19.40
2023-03-29T09:48:13.293Z,14.00
2023-03-29T09:49:14.440Z,13.68
2023-03-29T09:50:27.296Z,12.12
2023-03-29T09:51:13.845Z,21.64
2023-03-29T09:52:13.862Z,7.92
2023-03-29T09:53:13.796Z,8.48
2023-03-29T09:54:13.690Z,9.28
2023-03-29T09:55:13.792Z,18.44
2023-03-29T09:56:13.796Z,14.44
2023-03-29T09:57:14.056Z,2.12
2023-03-29T09:58:36.294Z,10.08
2023-03-29T10:02:19.451Z,18.96
2023-03-29T10:03:13.614Z,13.52
2023-03-29T10:04:16.182Z,14.80
2023-03-29T10:05:13.332Z,13.25
2023-03-29T10:06:13.848Z,10.56
2023-03-29T10:07:14.182Z,18.96
2023-03-29T10:08:19.766Z,18.64
2023-03-29T10:09:13.131Z,15.88
2023-03-29T10:10:13.402Z,12.40
2023-03-29T10:11:47.219Z,17.28
2023-03-29T10:13:21.044Z,20.40
2023-03-29T10:14:18.134Z,19.28
2023-03-29T10:15:26.606Z,12.12
2023-03-29T10:16:13.454Z,14.20
2023-03-29T10:17:13.504Z,10.92
2023-03-29T10:18:13.702Z,14.48
2023-03-29T10:19:13.609Z,13.36
2023-03-29T10:20:13.839Z,16.44
2023-03-29T10:21:13.866Z,18.52
2023-03-29T10:22:14.022Z,20.72
2023-03-29T10:23:12.906Z,15.80
2023-03-29T10:24:13.165Z,16.24
2023-03-29T10:25:13.021Z,22.40
2023-03-29T10:26:12.970Z,23.60
2023-03-29T10:27:13.063Z,25.80
2023-03-29T10:28:13.773Z,23.28
2023-03-29T10:29:13.976Z,17.90
2023-03-29T10:30:13.019Z,14.92
2023-03-29T10:31:13.016Z,27.32
2023-03-29T10:32:13.252Z,15.64
2023-03-29T10:33:13.376Z,26.60
2023-03-29T10:34:13.624Z,19.60
2023-03-29T10:35:13.663Z,18.68
2023-03-29T10:36:13.600Z,18.32
2023-03-29T10:37:13.667Z,14.44
2023-03-29T10:38:13.846Z,9.68
2023-03-29T10:39:13.994Z,9.92
2023-03-29T10:40:13.305Z,13.92
2023-03-29T10:41:13.914Z,26.92
2023-03-29T10:42:12.968Z,20.88
2023-03-29T10:43:13.375Z,22.72
2023-03-29T10:44:13.395Z,25.72
2023-03-29T10:45:13.545Z,21.00
2023-03-29T10:46:13.546Z,20.72
2023-03-29T10:47:13.511Z,18.64
2023-03-29T10:48:14.147Z,26.84
2023-03-29T10:49:13.087Z,22.92
2023-03-29T10:50:13.356Z,34.28
2023-03-29T10:51:13.524Z,30.08
2023-03-29T10:52:18.795Z,16.48
2023-03-29T10:53:13.735Z,26.24
2023-03-29T10:54:14.086Z,20.80
2023-03-29T10:55:13.182Z,14.72
2023-03-29T10:56:13.124Z,19.04
2023-03-29T10:57:13.076Z,6.28
2023-03-29T10:58:13.146Z,7.20
2023-03-29T10:59:13.098Z,5.32
2023-03-29T11:00:13.286Z,12.52
2023-03-29T11:01:13.210Z,10.20
2023-03-29T11:02:13.296Z,9.32
2023-03-29T11:03:15.803Z,15.36
2023-03-29T11:04:13.592Z,17.68
2023-03-29T11:05:13.608Z,19.72
2023-03-29T11:06:13.941Z,17.64
2023-03-29T11:07:12.890Z,17.88
2023-03-29T11:08:13.018Z,14.64
2023-03-29T11:09:13.232Z,22.56
2023-03-29T11:10:13.420Z,9.76
2023-03-29T11:11:13.622Z,13.24
2023-03-29T11:12:16.401Z,14.76
2023-03-29T11:13:13.542Z,22.68
2023-03-29T11:14:13.516Z,23.96
2023-03-29T11:15:13.562Z,33.28
2023-03-29T11:16:13.631Z,30.44
2023-03-29T11:17:13.759Z,14.72
2023-03-29T11:18:13.684Z,34.32
2023-03-29T11:19:13.961Z,18.20
2023-03-29T11:20:12.947Z,24.16
2023-03-29T11:21:13.144Z,34.48
2023-03-29T11:22:13.261Z,24.16
2023-03-29T11:23:13.264Z,18.88
2023-03-29T11:24:13.113Z,11.28
2023-03-29T11:25:14.444Z,18.00
2023-03-29T11:26:13.565Z,15.20
2023-03-29T11:27:13.724Z,13.04
2023-03-29T11:28:13.872Z,11.92
2023-03-29T11:29:13.915Z,37.80
2023-03-29T11:30:13.142Z,17.48
2023-03-29T11:31:13.786Z,17.44
2023-03-29T11:32:14.188Z,20.68
2023-03-29T11:33:13.192Z,18.12
2023-03-29T11:34:13.518Z,19.24
2023-03-29T11:35:13.534Z,13.04
2023-03-29T11:36:13.925Z,18.68
2023-03-29T11:37:12.859Z,13.32
2023-03-29T11:38:13.728Z,21.84
2023-03-29T11:39:14.046Z,32.52
2023-03-29T11:40:13.217Z,27.36
2023-03-29T11:41:13.089Z,23.14
2023-03-29T11:42:13.382Z,18.08
2023-03-29T11:43:13.330Z,4.48
2023-03-29T11:44:13.274Z,3.56
2023-03-29T11:45:13.726Z,4.96
2023-03-29T11:46:13.718Z,7.56
2023-03-29T11:47:13.956Z,13.48
2023-03-29T11:48:12.912Z,10.32
2023-03-29T11:49:12.847Z,14.68
2023-03-29T11:50:14.109Z,16.76
2023-03-29T11:51:13.455Z,19.88
2023-03-29T11:52:13.488Z,26.60
2023-03-29T11:53:13.471Z,29.76
2023-03-29T11:54:13.635Z,31.08
2023-03-29T11:55:13.538Z,21.76
2023-03-29T11:56:13.824Z,10.88
2023-03-29T11:57:14.109Z,20.72
2023-03-29T11:58:13.278Z,24.80
2023-03-29T11:59:13.508Z,17.24
2023-03-29T12:00:13.599Z,20.16
2023-03-29T12:01:13.922Z,25.28
2023-03-29T12:02:13.026Z,24.48
2023-03-29T12:03:13.204Z,23.68
2023-03-29T12:04:13.348Z,17.84
2023-03-29T12:05:13.569Z,14.44
2023-03-29T12:06:13.882Z,21.96
2023-03-29T12:07:13.198Z,25.64
2023-03-29T12:08:13.556Z,30.88
2023-03-29T12:09:16.238Z,18.52
2023-03-29T12:10:13.755Z,12.56
2023-03-29T12:11:13.893Z,8.04
2023-03-29T12:12:13.082Z,7.84
2023-03-29T12:13:13.306Z,13.60
2023-03-29T12:14:13.276Z,17.20
2023-03-29T12:15:13.692Z,22.44
2023-03-29T12:16:14.039Z,14.28
2023-03-29T12:17:13.032Z,19.76
2023-03-29T12:18:13.757Z,17.12
2023-03-29T12:19:13.590Z,7.76
2023-03-29T12:20:13.537Z,9.52
2023-03-29T12:21:13.731Z,17.12
2023-03-29T12:22:13.586Z,5.40
2023-03-29T12:23:13.568Z,8.44
2023-03-29T12:24:13.593Z,20.24
2023-03-29T12:25:14.614Z,9.12
2023-03-29T12:26:13.707Z,10.68
2023-03-29T12:27:13.649Z,10.28
2023-03-29T12:28:14.107Z,21.88
2023-03-29T12:29:13.176Z,16.64
2023-03-29T12:30:13.569Z,27.88
2023-03-29T12:31:13.813Z,25.32
2023-03-29T12:32:14.078Z,34.60
2023-03-29T12:33:15.824Z,43.80
2023-03-29T12:34:13.193Z,26.08
2023-03-29T12:35:13.061Z,30.56
2023-03-29T12:36:13.430Z,18.56
2023-03-29T12:37:13.834Z,12.88
2023-03-29T12:38:13.740Z,16.44
2023-03-29T12:39:13.661Z,16.40
2023-03-29T12:40:13.472Z,15.28
2023-03-29T12:41:13.468Z,7.12
2023-03-29T12:42:13.606Z,10.08
2023-03-29T12:43:14.008Z,25.84
2023-03-29T12:44:12.984Z,24.68
2023-03-29T12:45:12.891Z,28.44
2023-03-29T12:46:12.936Z,35.96
2023-03-29T12:47:12.901Z,28.24
2023-03-29T12:48:12.971Z,29.24
2023-03-29T12:49:12.916Z,29.60
2023-03-29T12:50:12.879Z,22.00
2023-03-29T12:51:13.352Z,22.60
2023-03-29T12:52:13.336Z,11.00
2023-03-29T12:53:13.566Z,22.04
2023-03-29T12:54:13.990Z,18.20
2023-03-29T12:55:12.927Z,24.04
2023-03-29T12:56:13.010Z,32.80
2023-03-29T12:57:13.138Z,25.04
2023-03-29T12:58:13.072Z,19.64
2023-03-29T12:59:12.987Z,16.56
2023-03-29T13:00:12.863Z,11.56
2023-03-29T13:01:13.909Z,6.48
2023-03-29T13:02:12.936Z,44.28
2023-03-29T13:03:13.192Z,34.20
2023-03-29T13:04:13.498Z,29.44
2023-03-29T13:05:13.627Z,51.28
2023-03-29T13:06:13.850Z,36.20
2023-03-29T13:07:14.486Z,34.56